Time;durP1;ratioP1;P1;durP2;ratioP2;P2;SDS_P1;SDS_P2;PMS_P1;PMS_P2;Temp;Humidity;BMP_temperature;BMP_pressure;BME280_temperature;BME280_humidity;BME280_pressure;Samples;Min_cycle;Max_cycle;Signal;HPM_P1;HPM_P2
2021/01/23 00:00:01;;;;;;;0.03;0.03;;;15.50;64.90;;;;;;4195396;28;20060;-41
2021/01/23 00:02:32;;;;;;;0.13;0.13;;;15.60;64.50;;;;;;4195457;28;20053;-40
2021/01/23 00:04:53;;;;;;;0.00;0.00;;;15.80;63.70;;;;;;4195413;28;20143;-40
2021/01/23 00:07:14;;;;;;;0.15;0.15;;;16.00;62.90;;;;;;4195646;28;20056;-40
2021/01/23 00:09:35;;;;;;;0.35;0.28;;;16.10;62.50;;;;;;4195242;28;20052;-40
2021/01/23 00:11:56;;;;;;;0.10;0.10;;;16.20;62.20;;;;;;4178699;28;20049;-40
2021/01/23 00:14:17;;;;;;;0.35;0.35;;;16.20;62.10;;;;;;4178713;28;20053;-39
2021/01/23 00:16:39;;;;;;;0.10;0.10;;;16.10;62.20;;;;;;4181499;28;20063;-40
2021/01/23 00:19:00;;;;;;;0.00;0.00;;;16.10;62.30;;;;;;4181865;28;20069;-40
2021/01/23 00:21:20;;;;;;;0.15;0.15;;;16.00;62.50;;;;;;4194490;28;20053;-40
2021/01/23 00:23:41;;;;;;;0.00;0.00;;;16.00;62.80;;;;;;4198660;28;20059;-42
2021/01/23 00:26:03;;;;;;;0.20;0.20;;;15.90;62.90;;;;;;4198782;28;20410;-40
2021/01/23 00:28:24;;;;;;;0.68;0.68;;;15.90;63.00;;;;;;4181931;28;20160;-40
2021/01/23 00:30:45;;;;;;;0.00;0.00;;;15.90;63.10;;;;;;4192005;28;20561;-42
2021/01/23 00:33:07;;;;;;;0.00;0.00;;;15.80;63.20;;;;;;4198629;28;20166;-43
2021/01/23 00:35:30;;;;;;;0.00;0.00;;;15.80;63.40;;;;;;4198456;28;20457;-42
2021/01/23 00:37:53;;;;;;;0.10;0.10;;;15.70;64.10;;;;;;4198610;28;20099;-40
2021/01/23 00:40:14;;;;;;;0.35;0.35;;;15.60;64.00;;;;;;4198106;28;20454;-40
2021/01/23 00:42:35;;;;;;;;;;;15.60;64.10;;;;;;4199041;28;20060;-40
2021/01/23 00:44:56;;;;;;;0.00;0.00;;;15.60;64.10;;;;;;4196834;28;19924;-40
2021/01/23 00:47:20;;;;;;;0.20;0.20;;;15.70;63.80;;;;;;4196617;28;20422;-40
2021/01/23 00:49:42;;;;;;;0.10;0.10;;;15.80;63.40;;;;;;4196769;28;20106;-40
2021/01/23 00:52:03;;;;;;;0.20;0.20;;;15.90;63.10;;;;;;4180409;28;20065;-40
2021/01/23 00:54:24;;;;;;;;;;;16.00;62.80;;;;;;4182372;28;20057;-40
2021/01/23 00:56:45;;;;;;;0.10;0.10;;;16.10;62.40;;;;;;4198248;28;19977;-40
2021/01/23 00:59:07;;;;;;;0.38;0.30;;;16.20;62.10;;;;;;4197328;28;20496;-39
2021/01/23 01:01:28;;;;;;;0.00;0.00;;;16.20;62.00;;;;;;4198040;28;20056;-40
2021/01/23 01:03:49;;;;;;;;;;;16.20;61.90;;;;;;4197165;28;20052;-40
2021/01/23 01:06:11;;;;;;;0.00;0.00;;;16.20;62.00;;;;;;4197831;28;19959;-40
2021/01/23 01:08:35;;;;;;;0.00;0.00;;;16.20;62.00;;;;;;4197921;28;20052;-41
2021/01/23 01:10:56;;;;;;;0.00;0.00;;;16.10;62.10;;;;;;4197703;28;20474;-40
2021/01/23 01:13:18;;;;;;;0.20;0.20;;;16.10;62.40;;;;;;4197553;28;20062;-40
2021/01/23 01:15:39;;;;;;;0.20;0.20;;;16.00;62.50;;;;;;4197802;28;20156;-41
2021/01/23 01:18:00;;;;;;;0.10;0.10;;;16.00;62.60;;;;;;4198135;28;20053;-40
2021/01/23 01:20:21;;;;;;;;;;;16.10;62.40;;;;;;4198392;28;20083;-40
2021/01/23 01:22:43;;;;;;;0.57;0.57;;;16.20;61.90;;;;;;4197944;28;19928;-40
2021/01/23 01:25:06;;;;;;;0.08;0.08;;;16.30;61.60;;;;;;4197125;28;20414;-40
2021/01/23 01:27:27;;;;;;;0.55;0.55;;;16.30;62.50;;;;;;4197006;28;20054;-40
2021/01/23 01:29:48;;;;;;;0.73;0.73;;;16.20;61.60;;;;;;4197158;28;20499;-40
2021/01/23 01:32:08;;;;;;;0.55;0.55;;;16.20;61.70;;;;;;4197414;28;20556;-40
2021/01/23 01:34:30;;;;;;;0.77;0.77;;;16.10;61.90;;;;;;4197078;28;20169;-41
2021/01/23 01:36:51;;;;;;;0.22;0.22;;;16.10;63.10;;;;;;4190079;28;20084;-40
2021/01/23 01:39:13;;;;;;;0.05;0.05;;;16.10;62.20;;;;;;4197316;28;20135;-40
2021/01/23 01:41:36;;;;;;;0.20;0.20;;;16.20;62.10;;;;;;4197140;28;20049;-40
2021/01/23 01:43:57;;;;;;;0.40;0.40;;;16.30;61.60;;;;;;4197214;28;20125;-41
2021/01/23 01:46:19;;;;;;;0.10;0.10;;;16.60;60.80;;;;;;4180349;28;20089;-40
2021/01/23 01:48:47;;;;;;;0.68;0.68;;;16.70;60.10;;;;;;4180433;28;20057;-40
2021/01/23 01:51:08;;;;;;;0.30;0.30;;;16.80;59.80;;;;;;4180969;28;20053;-40
2021/01/23 01:53:32;;;;;;;0.00;0.00;;;16.80;59.70;;;;;;4180453;28;20061;-40
2021/01/23 01:55:55;;;;;;;0.10;0.10;;;16.80;59.80;;;;;;4193261;28;20119;-41
2021/01/23 01:58:16;;;;;;;0.30;0.30;;;16.70;59.90;;;;;;4196677;28;20067;-41
2021/01/23 02:00:36;;;;;;;0.10;0.10;;;16.70;59.90;;;;;;4195806;28;20057;-41
2021/01/23 02:03:43;;;;;;;1.50;0.77;;;16.70;60.00;;;;;;4195621;28;20055;-40
2021/01/23 02:06:18;;;;;;;0.20;0.20;;;16.60;60.10;;;;;;4196110;28;20052;-41
2021/01/23 02:08:52;;;;;;;8.25;0.90;;;16.60;60.50;;;;;;4196923;28;20053;-41
2021/01/23 02:11:23;;;;;;;0.00;0.00;;;16.60;60.60;;;;;;4196475;28;20048;-41
2021/01/23 02:13:54;;;;;;;0.15;0.15;;;16.60;60.20;;;;;;4196483;28;20485;-40
2021/01/23 02:16:20;;;;;;;0.00;0.00;;;16.70;60.10;;;;;;4188294;28;20127;-41
2021/01/23 02:18:50;;;;;;;0.03;0.03;;;16.70;60.10;;;;;;4197103;28;20059;-41
2021/01/23 02:21:40;;;;;;;0.13;0.13;;;16.60;61.20;;;;;;4196539;28;20578;-40
2021/01/23 02:24:04;;;;;;;0.30;0.30;;;16.50;60.50;;;;;;4196803;28;20058;-41
2021/01/23 02:26:35;;;;;;;0.08;0.08;;;16.50;60.60;;;;;;4179899;28;20060;-41
2021/01/23 02:29:03;;;;;;;0.22;0.22;;;16.60;60.40;;;;;;4179812;28;20411;-41
2021/01/23 02:31:29;;;;;;;0.08;0.08;;;16.70;60.00;;;;;;4180296;28;20049;-41
2021/01/23 02:33:53;;;;;;;0.35;0.35;;;16.90;59.50;;;;;;4179824;28;20064;-41
2021/01/23 02:36:15;;;;;;;0.00;0.00;;;17.00;59.20;;;;;;4196311;28;20049;-41
2021/01/23 02:38:37;;;;;;;0.08;0.08;;;17.00;59.10;;;;;;4195484;28;20118;-41
2021/01/23 02:40:59;;;;;;;0.10;0.10;;;17.00;59.20;;;;;;4196059;28;20040;-40
2021/01/23 02:43:22;;;;;;;0.00;0.00;;;16.90;59.30;;;;;;4196601;28;20415;-40
2021/01/23 02:45:48;;;;;;;0.20;0.20;;;16.80;59.50;;;;;;4196050;28;20526;-40
2021/01/23 02:48:10;;;;;;;0.35;0.35;;;16.80;59.80;;;;;;4195725;28;20041;-41
2021/01/23 02:50:32;;;;;;;0.22;0.22;;;16.70;59.90;;;;;;4196213;28;20052;-40
2021/01/23 02:53:02;;;;;;;0.15;0.15;;;16.60;60.10;;;;;;4195776;28;20059;-40
2021/01/23 02:55:30;;;;;;;0.20;0.20;;;16.50;60.40;;;;;;4195395;28;20055;-40
2021/01/23 02:57:55;;;;;;;0.30;0.30;;;16.50;60.60;;;;;;4195708;28;20147;-41
2021/01/23 03:00:18;;;;;;;0.75;0.75;;;16.50;60.50;;;;;;4195950;28;20056;-41
2021/01/23 03:02:44;;;;;;;0.35;0.35;;;16.50;60.30;;;;;;4196520;28;20418;-41
2021/01/23 03:05:08;;;;;;;0.95;0.95;;;16.60;60.20;;;;;;4195409;28;20048;-41
2021/01/23 03:07:29;;;;;;;0.65;0.65;;;16.50;60.20;;;;;;4195810;28;20104;-41
2021/01/23 03:09:50;;;;;;;0.57;0.57;;;16.50;60.30;;;;;;4195780;28;20049;-40
2021/01/23 03:12:12;;;;;;;0.00;0.00;;;16.40;60.60;;;;;;4195690;28;20049;-41
2021/01/23 03:14:34;;;;;;;0.00;0.00;;;16.30;60.90;;;;;;4195293;28;20469;-41
2021/01/23 03:16:57;;;;;;;0.00;0.00;;;16.30;61.30;;;;;;4195861;28;20086;-41
2021/01/23 03:19:22;;;;;;;0.00;0.00;;;16.20;61.20;;;;;;4195856;28;20499;-41
2021/01/23 03:21:46;;;;;;;0.52;0.52;;;16.40;61.00;;;;;;4195517;28;20452;-41
2021/01/23 03:24:09;;;;;;;0.20;0.20;;;16.40;60.60;;;;;;4195749;28;20048;-41
2021/01/23 03:26:29;;;;;;;0.00;0.00;;;16.50;60.40;;;;;;4195284;28;20052;-41
2021/01/23 03:28:51;;;;;;;3.25;0.30;;;16.60;60.10;;;;;;4195639;28;20067;-43
2021/01/23 03:31:11;;;;;;;0.05;0.05;;;16.80;59.60;;;;;;4179278;28;20473;-40
2021/01/23 03:33:33;;;;;;;0.40;0.40;;;16.90;59.00;;;;;;4178844;28;20546;-41
2021/01/23 03:35:53;;;;;;;0.03;0.03;;;17.10;58.70;;;;;;4179370;28;20675;-41
2021/01/23 03:38:15;;;;;;;0.00;0.00;;;17.10;58.50;;;;;;4178698;28;20107;-44
2021/01/23 03:40:36;;;;;;;0.00;0.00;;;17.10;58.60;;;;;;4179057;28;20444;-42
2021/01/23 03:42:57;;;;;;;0.00;0.00;;;17.00;58.60;;;;;;4179470;28;20168;-43
2021/01/23 03:45:18;;;;;;;0.20;0.20;;;16.90;58.90;;;;;;4191501;28;20079;-41
2021/01/23 03:47:39;;;;;;;0.00;0.00;;;16.80;59.20;;;;;;4195687;28;20048;-42
2021/01/23 03:50:00;;;;;;;;;;;16.70;59.40;;;;;;4198098;28;20052;-42
2021/01/23 03:52:21;;;;;;;0.00;0.00;;;16.70;59.50;;;;;;4198817;28;19920;-43
2021/01/23 03:54:43;;;;;;;0.10;0.10;;;16.80;59.30;;;;;;4198788;28;20064;-41
2021/01/23 03:57:05;;;;;;;1.13;1.13;;;16.90;59.10;;;;;;4198320;28;20490;-41
2021/01/23 03:59:26;;;;;;;0.00;0.00;;;16.90;59.10;;;;;;4198790;28;20057;-42
2021/01/23 04:01:46;;;;;;;0.30;0.30;;;16.80;59.20;;;;;;4198728;28;20126;-43
2021/01/23 04:04:07;;;;;;;0.05;0.05;;;16.70;59.30;;;;;;4198374;28;20079;-43
2021/01/23 04:06:29;;;;;;;0.35;0.35;;;16.60;59.60;;;;;;4199044;28;20560;-41
2021/01/23 04:08:49;;;;;;;0.40;0.40;;;16.70;59.60;;;;;;4198696;28;20056;-41
2021/01/23 04:11:11;;;;;;;;;;;16.80;59.40;;;;;;4198969;28;20057;-41
2021/01/23 04:13:32;;;;;;;;;;;16.80;59.20;;;;;;4199148;28;19920;-41
2021/01/23 04:15:53;;;;;;;0.00;0.00;;;16.80;59.20;;;;;;4198739;28;19923;-41
2021/01/23 04:18:14;;;;;;;0.65;0.65;;;16.80;59.30;;;;;;4198389;28;20052;-42
2021/01/23 04:20:35;;;;;;;0.10;0.10;;;16.90;59.10;;;;;;4198904;28;20057;-42
2021/01/23 04:23:00;;;;;;;0.10;0.10;;;17.00;58.80;;;;;;4198238;28;20048;-41
2021/01/23 04:25:21;;;;;;;0.00;0.00;;;17.10;58.40;;;;;;4197950;28;20479;-41
2021/01/23 04:27:43;;;;;;;0.70;0.70;;;17.20;58.30;;;;;;4198491;28;20049;-41
2021/01/23 04:30:06;;;;;;;0.75;0.75;;;17.10;58.30;;;;;;4198198;28;20056;-42
2021/01/23 04:32:27;;;;;;;0.00;0.00;;;17.00;58.40;;;;;;4198390;28;20067;-41
2021/01/23 04:34:48;;;;;;;1.40;1.40;;;16.90;58.70;;;;;;4198048;28;20056;-41
2021/01/23 04:37:09;;;;;;;0.10;0.10;;;16.80;59.00;;;;;;4198648;28;20052;-43
2021/01/23 04:39:29;;;;;;;0.20;0.20;;;16.70;59.30;;;;;;4198616;28;20056;-43
2021/01/23 04:41:50;;;;;;;0.00;0.00;;;16.60;59.60;;;;;;4198103;28;20052;-42
2021/01/23 04:44:12;;;;;;;1.00;0.93;;;16.50;59.90;;;;;;4197808;28;20127;-41
2021/01/23 04:46:33;;;;;;;0.10;0.10;;;16.50;61.10;;;;;;4181619;28;20057;-41
2021/01/23 04:48:56;;;;;;;0.65;0.65;;;16.50;60.20;;;;;;4181399;28;20126;-41
2021/01/23 04:51:17;;;;;;;1.50;0.77;;;16.40;60.10;;;;;;4181389;28;20427;-41
2021/01/23 04:53:38;;;;;;;0.10;0.10;;;16.40;60.30;;;;;;4189396;28;20154;-43
2021/01/23 04:55:59;;;;;;;0.60;0.60;;;16.40;60.30;;;;;;4198094;28;20054;-41
2021/01/23 04:58:20;;;;;;;0.00;0.00;;;16.40;60.30;;;;;;4197657;28;20494;-41
2021/01/23 05:00:41;;;;;;;0.85;0.85;;;16.40;60.30;;;;;;4196978;28;20056;-41
2021/01/23 05:03:04;;;;;;;0.82;0.82;;;16.40;60.30;;;;;;4198104;28;20064;-40
2021/01/23 05:05:25;;;;;;;0.17;0.17;;;16.40;60.40;;;;;;4197936;28;20498;-40
2021/01/23 05:07:46;;;;;;;0.00;0.00;;;16.50;60.10;;;;;;4197851;28;20098;-43
2021/01/23 05:10:15;;;;;;;0.03;0.03;;;16.60;59.80;;;;;;4197434;28;20524;-41
2021/01/23 05:12:38;;;;;;;0.08;0.08;;;16.60;59.60;;;;;;4197510;28;20052;-41
2021/01/23 05:14:59;;;;;;;3.03;0.63;;;16.60;59.60;;;;;;4197154;28;20142;-41
2021/01/23 05:17:20;;;;;;;0.08;0.08;;;16.60;59.60;;;;;;4197815;28;20695;-41
2021/01/23 05:19:43;;;;;;;0.05;0.05;;;16.50;59.60;;;;;;4197492;28;20052;-42
2021/01/23 05:22:04;;;;;;;0.20;0.20;;;16.50;59.70;;;;;;4197439;28;20052;-41
2021/01/23 05:24:25;;;;;;;2.53;1.60;;;16.50;59.90;;;;;;4197514;28;20746;-41
2021/01/23 05:26:56;;;;;;;0.00;0.00;;;16.40;59.90;;;;;;4197532;28;20127;-41
2021/01/23 05:29:17;;;;;;;;;;;16.40;59.80;;;;;;4197570;28;20052;-43
2021/01/23 05:31:39;;;;;;;0.10;0.10;;;16.40;59.90;;;;;;4197702;28;19920;-42
2021/01/23 05:34:01;;;;;;;0.28;0.22;;;16.40;60.10;;;;;;4197807;28;20060;-41
2021/01/23 05:36:22;;;;;;;0.75;0.75;;;16.30;60.40;;;;;;4197208;28;20400;-40
2021/01/23 05:38:44;;;;;;;0.05;0.05;;;16.20;60.60;;;;;;4197434;28;20139;-40
2021/01/23 05:41:13;;;;;;;0.55;0.55;;;16.10;61.00;;;;;;4197421;28;20106;-41
2021/01/23 05:43:37;;;;;;;0.45;0.43;;;16.00;61.30;;;;;;4196812;28;20130;-40
2021/01/23 05:45:59;;;;;;;0.22;0.22;;;15.90;61.60;;;;;;4197357;28;20497;-41
2021/01/23 05:48:20;;;;;;;0.00;0.00;;;15.80;61.80;;;;;;4197604;28;20078;-41
2021/01/23 05:50:41;;;;;;;0.88;0.88;;;15.80;62.10;;;;;;4197472;28;20056;-41
2021/01/23 05:53:02;;;;;;;1.08;0.85;;;15.70;62.50;;;;;;4197003;28;20459;-41
2021/01/23 05:55:23;;;;;;;0.03;0.03;;;15.70;62.50;;;;;;4196183;28;20053;-42
2021/01/23 05:57:44;;;;;;;0.20;0.20;;;15.90;62.00;;;;;;4197165;28;20148;-40
2021/01/23 06:00:06;;;;;;;0.32;0.32;;;16.10;61.20;;;;;;4197013;28;20060;-42
2021/01/23 06:02:28;;;;;;;0.98;0.98;;;16.30;60.40;;;;;;4196822;28;20056;-43
2021/01/23 06:04:51;;;;;;;0.00;0.00;;;16.50;59.80;;;;;;4196551;28;20135;-41
2021/01/23 06:07:42;;;;;;;0.00;0.00;;;16.60;59.30;;;;;;4197209;28;20135;-41
2021/01/23 06:10:04;;;;;;;0.00;0.00;;;16.80;59.00;;;;;;4196631;28;20056;-41
2021/01/23 06:12:37;;;;;;;0.25;0.25;;;16.90;58.70;;;;;;4196568;28;20048;-41
2021/01/23 06:15:00;;;;;;;0.00;0.00;;;16.90;58.50;;;;;;4195892;28;20474;-41
2021/01/23 06:17:53;;;;;;;0.10;0.10;;;16.90;58.90;;;;;;4196404;28;20060;-41
2021/01/23 06:20:47;;;;;;;0.90;0.80;;;16.80;58.70;;;;;;4196868;28;20544;-41
2021/01/23 06:23:10;;;;;;;0.80;0.80;;;16.80;58.80;;;;;;4196137;28;20457;-41
2021/01/23 06:25:58;;;;;;;0.03;0.03;;;16.70;59.00;;;;;;4196158;28;20064;-41
2021/01/23 06:28:49;;;;;;;0.80;0.80;;;16.60;59.20;;;;;;4195952;28;20053;-40
2021/01/23 06:31:35;;;;;;;0.43;0.43;;;16.60;59.40;;;;;;4180160;28;20111;-41
2021/01/23 06:33:56;;;;;;;0.20;0.20;;;16.50;59.50;;;;;;4184112;28;20076;-42
2021/01/23 06:36:20;;;;;;;1.75;1.55;;;16.50;59.70;;;;;;4196360;28;20063;-40
2021/01/23 06:39:00;;;;;;;0.00;0.00;;;16.40;59.90;;;;;;4196591;28;20053;-40
2021/01/23 06:41:32;;;;;;;0.43;0.28;;;16.40;60.00;;;;;;4196809;28;20814;-41
2021/01/23 06:44:08;;;;;;;0.00;0.00;;;16.50;59.80;;;;;;4196403;28;20047;-41
2021/01/23 06:46:29;;;;;;;0.10;0.10;;;16.60;59.30;;;;;;4196452;28;20053;-41
2021/01/23 06:48:59;;;;;;;0.68;0.68;;;16.80;58.90;;;;;;4196367;28;20474;-41
2021/01/23 06:51:20;;;;;;;0.00;0.00;;;16.90;58.60;;;;;;4196081;28;20122;-40
2021/01/23 06:53:42;;;;;;;0.05;0.05;;;17.00;59.00;;;;;;4195554;28;20536;-41
2021/01/23 06:56:04;;;;;;;0.28;0.28;;;17.10;58.20;;;;;;4196208;28;20056;-41
2021/01/23 06:58:27;;;;;;;0.00;0.00;;;17.10;58.10;;;;;;4196194;28;20102;-40
2021/01/23 07:00:49;;;;;;;0.00;0.00;;;17.10;58.20;;;;;;4196415;28;20494;-40
2021/01/23 07:03:12;;;;;;;0.20;0.20;;;17.10;58.20;;;;;;4195889;28;20080;-41
2021/01/23 07:05:33;;;;;;;1.02;0.88;;;17.20;58.00;;;;;;4179310;28;20487;-41
2021/01/23 07:07:55;;;;;;;0.35;0.35;;;17.20;57.70;;;;;;4179277;28;20509;-41
2021/01/23 07:10:17;;;;;;;1.33;1.27;;;17.40;57.50;;;;;;4179225;28;20059;-41
2021/01/23 07:12:39;;;;;;;2.30;0.65;;;17.40;57.40;;;;;;4179396;28;20045;-41
2021/01/23 07:15:01;;;;;;;0.10;0.10;;;17.30;57.40;;;;;;4193712;28;20076;-40
2021/01/23 07:17:24;;;;;;;0.57;0.57;;;17.30;57.70;;;;;;4195877;28;20578;-40
2021/01/23 07:19:45;;;;;;;0.03;0.03;;;17.20;57.80;;;;;;4195670;28;20056;-40
2021/01/23 07:22:06;;;;;;;1.30;1.30;;;17.20;57.90;;;;;;4195638;28;20149;-41
2021/01/23 07:24:27;;;;;;;0.20;0.20;;;17.20;58.10;;;;;;4194951;28;20110;-41
2021/01/23 07:26:49;;;;;;;0.10;0.10;;;17.10;58.40;;;;;;4195952;28;20560;-40
2021/01/23 07:29:10;;;;;;;4.15;0.50;;;17.10;58.80;;;;;;4194997;28;20049;-40
2021/01/23 07:31:34;;;;;;;0.20;0.20;;;17.10;58.60;;;;;;4195565;28;20059;-41
2021/01/23 07:33:56;;;;;;;;;;;17.00;58.60;;;;;;4187775;28;20056;-40
2021/01/23 07:36:37;;;;;;;0.00;0.00;;;16.90;58.60;;;;;;4187457;28;20302;-40
2021/01/23 07:39:03;;;;;;;0.00;0.00;;;16.80;58.80;;;;;;4179017;28;20053;-40
2021/01/23 07:41:29;;;;;;;0.00;0.00;;;16.80;58.80;;;;;;4179022;28;20057;-40
2021/01/23 07:43:51;;;;;;;0.00;0.00;;;16.80;58.60;;;;;;4193925;28;20060;-40
2021/01/23 07:46:11;;;;;;;1.08;1.08;;;17.00;58.30;;;;;;4195970;28;20059;-41
2021/01/23 07:48:40;;;;;;;0.38;0.38;;;17.10;57.90;;;;;;4195542;28;20064;-40
2021/01/23 07:51:02;;;;;;;0.43;0.43;;;17.10;58.40;;;;;;4195385;28;20060;-40
2021/01/23 07:53:24;;;;;;;0.20;0.20;;;17.10;57.70;;;;;;4195110;28;20064;-40
2021/01/23 07:55:45;;;;;;;0.00;0.00;;;17.00;57.70;;;;;;4195535;28;20052;-40
2021/01/23 07:58:07;;;;;;;0.20;0.20;;;17.00;57.70;;;;;;4194815;28;20068;-41
2021/01/23 08:00:29;;;;;;;;;;;16.90;57.70;;;;;;4195919;28;20060;-40
2021/01/23 08:02:51;;;;;;;1.45;0.98;;;16.80;57.80;;;;;;4195409;28;20405;-40
2021/01/23 08:05:13;;;;;;;0.00;0.00;;;16.80;57.90;;;;;;4195041;28;20052;-41
2021/01/23 08:07:41;;;;;;;0.00;0.00;;;16.80;57.90;;;;;;4195379;28;20048;-40
2021/01/23 08:10:08;;;;;;;0.00;0.00;;;16.80;57.70;;;;;;4195053;28;20060;-40
2021/01/23 08:12:29;;;;;;;0.55;0.55;;;16.80;57.80;;;;;;4194930;28;20051;-40
2021/01/23 08:14:53;;;;;;;0.52;0.52;;;16.70;57.90;;;;;;4194538;28;20130;-40
2021/01/23 08:17:15;;;;;;;0.85;0.85;;;16.70;58.20;;;;;;4195074;28;20495;-40
2021/01/23 08:19:48;;;;;;;1.95;1.23;;;16.70;58.20;;;;;;4194572;28;20087;-40
2021/01/23 08:22:10;;;;;;;0.25;0.22;;;16.70;58.30;;;;;;4195137;28;20049;-40
2021/01/23 08:24:31;;;;;;;0.20;0.20;;;16.60;58.40;;;;;;4191937;28;20127;-41
2021/01/23 08:26:52;;;;;;;0.28;0.28;;;16.50;58.50;;;;;;4178832;28;20057;-40
2021/01/23 08:29:19;;;;;;;0.55;0.55;;;16.60;58.50;;;;;;4189571;28;20052;-39
2021/01/23 08:31:44;;;;;;;0.00;0.00;;;16.70;58.30;;;;;;4194736;28;20129;-40
2021/01/23 08:34:06;;;;;;;0.00;0.00;;;16.70;58.00;;;;;;4195052;28;20406;-41
2021/01/23 08:36:30;;;;;;;0.00;0.00;;;16.70;57.90;;;;;;4195862;28;20052;-40
2021/01/23 08:38:55;;;;;;;0.43;0.43;;;16.70;57.80;;;;;;4198130;28;20423;-40
2021/01/23 08:41:16;;;;;;;0.17;0.17;;;16.70;57.70;;;;;;4198153;28;20135;-40
2021/01/23 08:43:37;;;;;;;0.30;0.30;;;16.70;57.60;;;;;;4189806;28;20060;-40
2021/01/23 08:45:58;;;;;;;0.00;0.00;;;16.80;57.30;;;;;;4197735;28;20045;-40
2021/01/23 08:48:19;;;;;;;0.00;0.00;;;16.90;57.00;;;;;;4192914;28;20049;-40
2021/01/23 08:50:41;;;;;;;;;;;16.90;56.90;;;;;;4182233;28;20049;-40
2021/01/23 08:53:02;;;;;;;0.00;0.00;;;16.90;57.00;;;;;;4186311;28;20457;-41
2021/01/23 08:55:23;;;;;;;1.00;1.00;;;16.90;57.20;;;;;;4181126;28;20147;-40
2021/01/23 08:57:44;;;;;;;0.10;0.10;;;16.80;57.20;;;;;;4181288;28;20144;-40
2021/01/23 09:00:08;;;;;;;0.05;0.05;;;16.80;57.40;;;;;;4183058;28;20158;-39
2021/01/23 09:02:29;;;;;;;0.55;0.55;;;16.80;57.60;;;;;;4194612;28;20098;-40
2021/01/23 09:04:50;;;;;;;0.52;0.52;;;16.70;57.80;;;;;;4197896;28;20052;-40
2021/01/23 09:07:12;;;;;;;0.00;0.00;;;16.60;58.00;;;;;;4197587;28;20086;-39
2021/01/23 09:09:33;;;;;;;2.50;0.77;;;16.50;58.30;;;;;;4191094;28;20502;-40
2021/01/23 09:11:54;;;;;;;0.57;0.57;;;16.40;58.90;;;;;;4198017;28;20052;-39
2021/01/23 09:14:15;;;;;;;0.05;0.05;;;16.30;59.30;;;;;;4197217;28;20060;-39
2021/01/23 09:16:36;;;;;;;0.32;0.32;;;16.30;59.30;;;;;;4197749;28;20052;-40
2021/01/23 09:18:57;;;;;;;13.80;0.88;;;16.40;59.10;;;;;;4193187;28;20052;-40
2021/01/23 09:21:18;;;;;;;0.32;0.32;;;16.40;59.70;;;;;;4197790;28;20076;-40
2021/01/23 09:23:40;;;;;;;1.13;1.13;;;16.40;59.00;;;;;;4197481;28;20471;-41
2021/01/23 09:26:02;;;;;;;0.90;0.90;;;16.40;59.00;;;;;;4197688;28;20053;-41
2021/01/23 09:28:25;;;;;;;0.00;0.00;;;16.50;58.70;;;;;;4192570;28;20056;-40
2021/01/23 09:30:46;;;;;;;0.10;0.10;;;16.60;58.20;;;;;;4197065;28;20506;-40
2021/01/23 09:33:06;;;;;;;0.08;0.08;;;16.80;58.00;;;;;;4181300;28;20045;-44
2021/01/23 09:35:28;;;;;;;3.65;1.45;;;16.70;57.80;;;;;;4196381;28;20364;-41
2021/01/23 09:37:48;;;;;;;0.10;0.10;;;16.70;57.90;;;;;;4197244;28;20045;-40
2021/01/23 09:40:12;;;;;;;0.95;0.95;;;16.60;58.10;;;;;;4197139;28;20373;-41
2021/01/23 09:42:33;;;;;;;1.35;1.35;;;16.60;58.10;;;;;;4196681;28;20411;-41
2021/01/23 09:44:54;;;;;;;0.05;0.05;;;16.60;58.20;;;;;;4180589;28;20049;-47
2021/01/23 09:47:16;;;;;;;1.80;1.13;;;16.50;58.20;;;;;;4193721;28;20514;-40
2021/01/23 09:49:37;;;;;;;0.57;0.57;;;16.50;58.40;;;;;;4197286;28;20056;-41
2021/01/23 09:51:58;;;;;;;5.20;2.38;;;16.50;58.50;;;;;;4197184;28;20551;-39
2021/01/23 09:54:19;;;;;;;0.20;0.20;;;16.40;58.50;;;;;;4196414;28;20056;-41
2021/01/23 09:56:54;;;;;;;0.68;0.35;;;16.40;58.60;;;;;;4196638;28;20074;-42
2021/01/23 09:59:16;;;;;;;0.30;0.25;;;16.30;58.90;;;;;;4196532;28;20079;-48
2021/01/23 10:01:37;;;;;;;0.43;0.43;;;16.30;58.90;;;;;;4196899;28;20523;-45
2021/01/23 10:03:59;;;;;;;0.17;0.17;;;16.30;58.70;;;;;;4196886;28;20048;-41
2021/01/23 10:06:19;;;;;;;;;;;16.40;58.70;;;;;;4196435;28;20080;-41
2021/01/23 10:08:40;;;;;;;0.00;0.00;;;16.60;58.30;;;;;;4196676;28;19948;-41
2021/01/23 10:11:04;;;;;;;0.00;0.00;;;17.20;56.90;;;;;;4196945;28;20067;-41
2021/01/23 10:13:26;;;;;;;0.00;0.00;;;17.90;55.20;;;;;;4196457;28;20132;-42
2021/01/23 10:15:47;;;;;;;0.43;0.43;;;18.50;53.60;;;;;;4195716;28;20135;-46
2021/01/23 10:18:08;;;;;;;0.35;0.35;;;19.10;52.20;;;;;;4196740;28;20056;-40
2021/01/23 10:20:30;;;;;;;0.10;0.10;;;19.50;51.00;;;;;;4196409;28;20139;-42
2021/01/23 10:22:51;;;;;;;0.13;0.13;;;19.90;50.30;;;;;;4194793;28;20044;-40
2021/01/23 10:25:13;;;;;;;0.10;0.10;;;20.00;49.70;;;;;;4195994;28;20052;-40
2021/01/23 10:27:34;;;;;;;2.42;2.22;;;20.10;49.80;;;;;;4196319;28;20060;-41
2021/01/23 10:29:55;;;;;;;1.02;1.00;;;20.00;49.80;;;;;;4196423;28;20410;-40
2021/01/23 10:32:17;;;;;;;0.00;0.00;;;20.00;50.00;;;;;;4196073;28;20056;-41
2021/01/23 10:34:38;;;;;;;0.15;0.15;;;19.90;50.10;;;;;;4195273;28;20089;-41
2021/01/23 10:36:58;;;;;;;0.93;0.90;;;19.80;50.40;;;;;;4194699;28;20107;-41
2021/01/23 10:39:20;;;;;;;0.00;0.00;;;19.70;50.70;;;;;;4196247;28;20055;-41
2021/01/23 10:41:41;;;;;;;0.00;0.00;;;19.50;51.10;;;;;;4196162;28;20053;-41
2021/01/23 10:44:03;;;;;;;0.20;0.20;;;19.30;51.70;;;;;;4195631;28;20056;-41
2021/01/23 10:46:25;;;;;;;0.35;0.35;;;19.10;52.20;;;;;;4195881;28;20056;-41
2021/01/23 10:48:46;;;;;;;0.30;0.30;;;19.00;52.50;;;;;;4194161;28;20128;-41
2021/01/23 10:51:08;;;;;;;;;;;19.00;52.60;;;;;;4196565;28;20518;-41
2021/01/23 10:53:29;;;;;;;0.00;0.00;;;19.00;52.70;;;;;;4195846;28;19926;-41
2021/01/23 10:55:50;;;;;;;0.00;0.00;;;18.80;52.80;;;;;;4195988;28;20434;-41
2021/01/23 10:58:11;;;;;;;;;;;18.70;53.10;;;;;;4189358;28;20048;-40
2021/01/23 11:00:32;;;;;;;0.00;0.00;;;18.60;53.60;;;;;;4195493;28;19928;-40
2021/01/23 11:02:54;;;;;;;0.20;0.20;;;18.50;53.80;;;;;;4195763;28;20074;-40
2021/01/23 11:05:15;;;;;;;0.70;0.68;;;18.60;53.70;;;;;;4195863;28;20062;-42
2021/01/23 11:07:49;;;;;;;0.57;0.57;;;18.70;53.60;;;;;;4194942;28;20051;-42
2021/01/23 11:10:11;;;;;;;0.10;0.10;;;18.80;53.30;;;;;;4196007;28;20450;-40
2021/01/23 11:12:33;;;;;;;0.00;0.00;;;18.80;53.30;;;;;;4195353;28;20548;-40
2021/01/23 11:14:54;;;;;;;0.10;0.10;;;18.80;53.50;;;;;;4195556;28;20139;-41
2021/01/23 11:17:15;;;;;;;0.00;0.00;;;18.80;53.40;;;;;;4196023;28;20060;-41
2021/01/23 11:19:38;;;;;;;0.00;0.00;;;18.90;53.30;;;;;;4179160;28;20049;-41
2021/01/23 11:21:59;;;;;;;0.10;0.10;;;19.00;53.10;;;;;;4179096;28;20053;-40
2021/01/23 11:24:20;;;;;;;0.70;0.70;;;19.00;52.90;;;;;;4179167;28;20107;-40
2021/01/23 11:26:41;;;;;;;0.30;0.30;;;19.00;52.80;;;;;;4179112;28;20053;-41
2021/01/23 11:29:03;;;;;;;0.00;0.00;;;19.00;52.90;;;;;;4185181;28;20510;-41
2021/01/23 11:31:24;;;;;;;1.00;0.98;;;18.90;53.20;;;;;;4190709;28;20052;-41
2021/01/23 11:33:45;;;;;;;0.17;0.17;;;18.80;53.40;;;;;;4186713;28;20053;-41
2021/01/23 11:36:07;;;;;;;0.00;0.00;;;18.70;53.60;;;;;;4186163;28;20052;-41
2021/01/23 11:38:28;;;;;;;0.10;0.10;;;18.80;53.60;;;;;;4189901;28;20053;-40
2021/01/23 11:40:49;;;;;;;0.73;0.73;;;18.90;53.50;;;;;;4186077;28;20100;-41
2021/01/23 11:43:11;;;;;;;;;;;18.90;53.30;;;;;;4193501;28;20131;-42
2021/01/23 11:45:32;;;;;;;0.13;0.13;;;18.90;53.30;;;;;;4188910;28;19924;-41
2021/01/23 11:47:53;;;;;;;11.25;1.25;;;18.90;53.50;;;;;;4191568;28;20499;-43
2021/01/23 11:50:14;;;;;;;0.60;0.55;;;18.70;53.90;;;;;;4186561;28;20057;-42
2021/01/23 11:52:36;;;;;;;0.00;0.00;;;18.50;54.40;;;;;;4185952;28;20594;-40
2021/01/23 11:54:57;;;;;;;0.20;0.20;;;18.30;54.80;;;;;;4188560;28;20049;-40
2021/01/23 11:57:18;;;;;;;0.47;0.47;;;18.20;55.40;;;;;;4186880;28;20513;-40
2021/01/23 11:59:39;;;;;;;0.43;0.35;;;18.00;55.70;;;;;;4186639;28;20491;-40
2021/01/23 12:02:00;;;;;;;0.40;0.40;;;18.00;55.60;;;;;;4189993;28;20507;-40
2021/01/23 12:04:22;;;;;;;0.00;0.00;;;18.10;55.40;;;;;;4187116;28;20166;-40
2021/01/23 12:06:43;;;;;;;3.05;2.83;;;18.20;55.40;;;;;;4185849;28;20549;-40
2021/01/23 12:09:04;;;;;;;1.85;0.20;;;18.20;55.40;;;;;;4189879;28;20056;-40
2021/01/23 12:11:26;;;;;;;0.00;0.00;;;18.10;55.50;;;;;;4191919;28;20053;-41
2021/01/23 12:13:49;;;;;;;1.15;0.93;;;18.00;55.70;;;;;;4189872;28;20099;-40
2021/01/23 12:16:10;;;;;;;0.15;0.15;;;17.90;56.20;;;;;;4189118;28;20055;-41
2021/01/23 12:18:31;;;;;;;5.28;1.45;;;17.70;56.60;;;;;;4191552;28;20056;-40
2021/01/23 12:20:53;;;;;;;0.90;0.85;;;17.70;56.60;;;;;;4193116;28;20044;-40
2021/01/23 12:23:14;;;;;;;0.57;0.30;;;17.80;56.40;;;;;;4189200;28;20118;-40
2021/01/23 12:25:39;;;;;;;0.93;0.40;;;17.90;56.00;;;;;;4188764;28;20485;-42
2021/01/23 12:28:04;;;;;;;1.38;1.38;;;18.10;55.80;;;;;;4195557;28;20052;-40